Time;durP1;ratioP1;P1;durP2;ratioP2;P2;SDS_P1;SDS_P2;PMS_P1;PMS_P2;Temp;Humidity;BMP_temperature;BMP_pressure;BME280_temperature;BME280_humidity;BME280_pressure;Samples;Min_cycle;Max_cycle;Signal;HPM_P1;HPM_P2
2022/05/06 09:42:04;;;;;;;6.78;5.88;;;18.10;99.90;;;;;;5090943;27;20537;-81
2022/05/06 09:44:30;;;;;;;5.85;5.35;;;16.20;99.90;;;;;;5090777;28;20285;-81
2022/05/06 09:47:12;;;;;;;7.63;5.30;;;16.30;99.90;;;;;;5090804;28;20249;-81
2022/05/06 09:49:39;;;;;;;6.97;6.28;;;16.60;99.90;;;;;;5090782;28;20167;-81
2022/05/06 09:52:14;;;;;;;7.57;6.65;;;16.70;99.90;;;;;;5090843;28;20696;-81
2022/05/06 09:54:44;;;;;;;7.70;6.85;;;16.70;99.90;;;;;;5090695;28;20252;-81
2022/05/06 09:57:12;;;;;;;8.43;6.50;;;16.70;99.90;;;;;;5090583;28;20163;-81
2022/05/06 09:59:38;;;;;;;9.43;6.53;;;16.80;99.90;;;;;;5090515;28;20164;-81
2022/05/06 10:02:05;;;;;;;8.63;6.63;;;16.80;99.90;;;;;;5090555;28;20183;-81
2022/05/06 10:04:30;;;;;;;8.93;6.57;;;16.90;99.90;;;;;;5090528;28;20164;-81
2022/05/06 10:07:00;;;;;;;8.80;7.55;;;17.00;99.90;;;;;;5089203;28;20172;-81
2022/05/06 10:09:29;;;;;;;7.05;6.45;;;17.00;99.90;;;;;;5090489;28;20174;-81
2022/05/06 10:11:58;;;;;;;7.57;6.43;;;17.10;99.90;;;;;;5090358;28;20174;-81
2022/05/06 10:14:25;;;;;;;7.80;7.03;;;17.30;99.90;;;;;;5090326;28;20172;-81
2022/05/06 10:16:50;;;;;;;8.10;6.70;;;17.50;99.90;;;;;;5090260;28;20224;-81
2022/05/06 10:19:45;;;;;;;9.10;6.40;;;17.60;99.90;;;;;;5088949;28;20176;-81
2022/05/06 10:22:11;;;;;;;8.50;6.63;;;17.70;99.90;;;;;;5088861;28;20179;-81
2022/05/06 10:24:53;;;;;;;7.50;6.68;;;17.80;99.90;;;;;;5088910;28;20630;-81
2022/05/06 10:33:18;;;;;;;9.88;6.38;;;17.90;99.90;;;;;;5090240;28;20245;-81
2022/05/06 10:35:46;;;;;;;7.38;6.72;;;18.00;99.90;;;;;;5089879;28;20633;-81
2022/05/06 10:38:17;;;;;;;13.95;6.07;;;18.00;99.90;;;;;;5089844;28;20509;-81
2022/05/06 10:40:54;;;;;;;9.80;6.47;;;17.90;99.90;;;;;;5089578;28;20211;-81
2022/05/06 10:43:41;;;;;;;13.80;9.77;;;17.90;99.90;;;;;;5089716;28;20186;-81
2022/05/06 10:46:09;;;;;;;18.58;7.68;;;17.80;99.90;;;;;;5089702;28;20173;-80
2022/05/06 10:48:35;;;;;;;10.73;7.90;;;17.80;99.90;;;;;;5089661;28;20166;-81
2022/05/06 10:51:27;;;;;;;9.15;8.18;;;17.80;99.90;;;;;;5089595;28;20168;-81
2022/05/06 10:53:54;;;;;;;10.93;7.88;;;17.70;99.90;;;;;;5076396;28;20605;-81
2022/05/06 10:56:19;;;;;;;12.27;7.30;;;17.60;99.90;;;;;;5076059;28;20659;-81
2022/05/06 10:58:45;;;;;;;9.52;8.63;;;17.60;99.90;;;;;;5075953;28;20207;-81
2022/05/06 11:01:17;;;;;;;9.75;8.85;;;17.60;99.90;;;;;;5074617;28;20200;-80
2022/05/06 11:03:53;;;;;;;10.45;8.07;;;17.60;99.90;;;;;;5075851;28;20498;-81
2022/05/06 11:06:21;;;;;;;10.88;7.95;;;17.70;99.90;;;;;;5075691;28;20260;-80
2022/05/06 11:08:46;;;;;;;11.93;8.27;;;17.70;99.90;;;;;;5075802;28;20160;-80
2022/05/06 11:11:19;;;;;;;8.73;7.80;;;17.80;99.90;;;;;;5074470;28;20176;-81
2022/05/06 11:13:47;;;;;;;8.93;7.18;;;18.00;99.90;;;;;;5075736;28;20168;-80
2022/05/06 11:16:14;;;;;;;8.27;6.65;;;18.10;99.90;;;;;;5075668;28;20171;-80
2022/05/06 11:18:48;;;;;;;6.65;6.05;;;18.30;99.90;;;;;;5075590;28;20168;-80
2022/05/06 11:21:23;;;;;;;6.28;5.60;;;18.50;99.90;;;;;;5075521;28;20616;-80
2022/05/06 11:23:52;;;;;;;7.55;5.47;;;18.70;99.90;;;;;;5074207;28;20171;-80
2022/05/06 11:26:29;;;;;;;10.50;5.82;;;18.70;99.90;;;;;;5075494;28;20518;-80
2022/05/06 11:29:05;;;;;;;12.20;10.23;;;18.80;99.90;;;;;;5075376;28;20163;-80
2022/05/06 11:31:31;;;;;;;12.55;10.23;;;18.80;99.90;;;;;;5075372;28;20563;-80
2022/05/06 11:34:02;;;;;;;14.50;9.90;;;18.60;99.90;;;;;;5075201;28;20612;-80
2022/05/06 11:36:27;;;;;;;10.77;9.77;;;18.40;99.90;;;;;;5075313;28;20180;-80
2022/05/06 11:38:53;;;;;;;10.18;9.07;;;18.20;99.90;;;;;;5075170;28;20172;-80
2022/05/06 11:41:18;;;;;;;8.50;7.85;;;18.00;99.90;;;;;;5074824;28;20306;-80
2022/05/06 11:43:46;;;;;;;12.85;8.90;;;17.90;99.90;;;;;;5074989;28;20191;-80
2022/05/06 11:48:59;;;;;;;9.73;8.73;;;18.00;99.90;;;;;;5075014;28;20178;-79
2022/05/06 11:51:45;;;;;;;9.13;8.10;;;18.10;99.90;;;;;;5074755;28;20176;-80
2022/05/06 11:54:14;;;;;;;9.57;8.60;;;18.10;99.90;;;;;;5075217;28;20178;-79
2022/05/06 11:56:40;;;;;;;10.80;9.80;;;18.10;99.90;;;;;;5074872;28;20225;-80
2022/05/06 11:59:07;;;;;;;10.82;9.27;;;18.10;99.90;;;;;;5074850;28;20255;-80
2022/05/06 12:01:38;;;;;;;17.63;9.32;;;18.10;99.90;;;;;;5074658;28;20237;-79
2022/05/06 12:04:09;;;;;;;14.52;10.30;;;18.20;99.90;;;;;;5073712;28;20676;-79
2022/05/06 12:06:40;;;;;;;9.95;8.95;;;18.30;99.90;;;;;;5074653;28;20228;-79
2022/05/06 12:09:11;;;;;;;10.40;9.27;;;18.40;99.90;;;;;;5074644;28;20171;-80
2022/05/06 12:11:37;;;;;;;13.75;10.02;;;18.60;99.90;;;;;;5074598;28;20179;-80
2022/05/06 12:14:10;;;;;;;10.07;9.02;;;18.70;99.90;;;;;;5074511;28;20168;-80
2022/05/06 12:16:36;;;;;;;11.35;9.40;;;18.90;99.90;;;;;;5074566;28;20629;-80
2022/05/06 12:19:02;;;;;;;13.27;9.77;;;19.00;99.90;;;;;;5073096;28;20263;-80
2022/05/06 12:21:28;;;;;;;10.18;9.20;;;19.10;99.90;;;;;;5074331;28;20192;-80
2022/05/06 12:23:57;;;;;;;14.45;9.80;;;19.30;99.90;;;;;;5074302;28;20164;-80
2022/05/06 12:26:33;;;;;;;10.43;9.45;;;19.20;99.90;;;;;;5074272;28;20251;-80
2022/05/06 12:29:00;;;;;;;9.05;8.15;;;19.30;99.90;;;;;;5074176;28;20174;-80
2022/05/06 12:31:31;;;;;;;11.13;7.75;;;19.50;99.90;;;;;;5074170;28;20164;-80
2022/05/06 12:34:02;;;;;;;10.30;7.32;;;19.60;99.90;;;;;;5074426;28;20222;-80
2022/05/06 12:36:28;;;;;;;8.13;7.28;;;19.90;99.90;;;;;;5074102;28;20254;-80
2022/05/06 12:38:54;;;;;;;8.57;7.88;;;19.90;99.90;;;;;;5074022;28;20196;-79
2022/05/06 12:41:22;;;;;;;8.30;7.60;;;19.90;99.90;;;;;;5073800;28;20295;-80
2022/05/06 12:43:49;;;;;;;12.98;8.27;;;19.60;99.90;;;;;;5073927;28;20188;-80
2022/05/06 12:46:33;;;;;;;8.18;6.72;;;19.50;99.90;;;;;;5072522;28;20172;-80
2022/05/06 12:51:45;;;;;;;11.25;8.05;;;19.60;99.90;;;;;;5074073;28;20643;-80
2022/05/06 12:54:12;;;;;;;8.13;7.10;;;19.80;99.90;;;;;;5073779;28;20182;-80
2022/05/06 12:56:39;;;;;;;10.88;8.60;;;20.00;99.90;;;;;;5073743;28;20168;-80
2022/05/06 12:59:05;;;;;;;13.02;10.15;;;20.30;99.90;;;;;;5072451;28;20210;-80
2022/05/06 13:01:32;;;;;;;11.68;9.25;;;20.50;99.90;;;;;;5073607;28;20621;-80
2022/05/06 13:03:58;;;;;;;9.57;8.13;;;20.70;99.90;;;;;;5073565;28;20229;-80
2022/05/06 13:06:24;;;;;;;16.60;9.50;;;20.70;99.90;;;;;;5073633;28;20566;-80
2022/05/06 13:08:49;;;;;;;9.07;8.13;;;20.70;99.90;;;;;;5073513;28;20168;-80
2022/05/06 13:11:15;;;;;;;11.77;7.43;;;20.80;99.90;;;;;;5073568;28;20210;-80
2022/05/06 13:13:41;;;;;;;20.83;13.13;;;20.90;99.90;;;;;;5073507;28;20171;-80
2022/05/06 13:16:08;;;;;;;23.52;12.52;;;21.00;99.90;;;;;;5073261;28;20644;-80
2022/05/06 13:18:34;;;;;;;17.48;11.65;;;20.90;99.90;;;;;;5073503;28;20663;-80
2022/05/06 13:21:00;;;;;;;12.43;10.63;;;20.70;99.90;;;;;;5073351;28;20192;-80
2022/05/06 13:23:25;;;;;;;15.75;11.13;;;20.90;99.90;;;;;;5072168;28;20531;-80
2022/05/06 13:25:52;;;;;;;14.93;10.95;;;21.10;99.90;;;;;;5073331;28;20251;-80
2022/05/06 13:28:17;;;;;;;13.02;11.77;;;21.20;99.90;;;;;;5073345;28;20168;-80
2022/05/06 13:30:43;;;;;;;13.95;10.45;;;21.10;99.90;;;;;;5073361;28;20171;-80
2022/05/06 13:33:09;;;;;;;18.88;13.63;;;21.30;99.90;;;;;;5071982;28;20180;-81
2022/05/06 13:35:34;;;;;;;15.30;12.00;;;21.40;99.90;;;;;;5073152;28;20226;-80
2022/05/06 13:38:00;;;;;;;12.75;11.55;;;21.20;99.90;;;;;;5073320;28;20164;-81
2022/05/06 13:40:26;;;;;;;17.95;11.25;;;21.20;99.90;;;;;;5072979;28;20302;-80
2022/05/06 13:42:52;;;;;;;15.27;12.38;;;21.20;99.90;;;;;;5073209;28;20677;-80
2022/05/06 13:45:18;;;;;;;22.23;12.13;;;21.30;99.90;;;;;;5071888;28;20175;-80
2022/05/06 13:47:44;;;;;;;12.30;9.13;;;21.50;99.90;;;;;;5073191;28;20521;-80
2022/05/06 13:50:10;;;;;;;8.15;7.45;;;21.50;99.90;;;;;;5072057;28;20172;-80
2022/05/06 13:52:36;;;;;;;11.63;10.52;;;21.60;99.90;;;;;;5071868;28;20168;-80
2022/05/06 13:55:03;;;;;;;12.40;9.48;;;21.70;99.90;;;;;;5073021;28;20183;-80
2022/05/06 14:00:14;;;;;;;15.38;12.02;;;22.10;99.90;;;;;;5073017;28;20298;-80
2022/05/06 14:02:40;;;;;;;16.55;13.07;;;22.10;99.90;;;;;;5073021;28;20250;-80
2022/05/06 14:05:06;;;;;;;19.58;12.77;;;22.00;99.90;;;;;;5072917;28;20175;-80
2022/05/06 14:07:32;;;;;;;13.52;12.13;;;22.20;99.90;;;;;;5072984;28;20250;-80
2022/05/06 14:09:59;;;;;;;12.00;11.00;;;22.30;99.90;;;;;;5072961;28;20290;-80
2022/05/06 14:12:25;;;;;;;14.73;13.30;;;22.30;99.90;;;;;;5072946;28;20160;-80
2022/05/06 14:14:50;;;;;;;17.45;12.80;;;22.40;99.90;;;;;;5072899;28;20179;-80
2022/05/06 14:17:17;;;;;;;16.05;12.32;;;22.20;99.90;;;;;;5072901;28;20172;-80
2022/05/06 14:19:43;;;;;;;15.65;12.70;;;21.80;99.90;;;;;;5072755;28;20242;-80
2022/05/06 14:22:09;;;;;;;16.75;14.30;;;21.40;99.90;;;;;;5072861;28;20716;-80
2022/05/06 14:24:34;;;;;;;16.33;13.60;;;21.00;99.90;;;;;;5072807;28;20159;-80
2022/05/06 14:27:01;;;;;;;16.95;13.25;;;21.10;99.90;;;;;;5073774;28;20198;-80
2022/05/06 14:29:26;;;;;;;15.95;12.48;;;21.20;99.90;;;;;;5076609;28;20233;-80
2022/05/06 14:31:52;;;;;;;15.70;13.25;;;21.70;99.90;;;;;;5076473;28;20167;-80
2022/05/06 14:34:17;;;;;;;15.38;13.05;;;22.20;99.90;;;;;;5076436;28;20526;-80
2022/05/06 14:36:43;;;;;;;12.30;11.27;;;22.70;99.90;;;;;;5076350;28;20171;-81
2022/05/06 14:39:08;;;;;;;13.18;11.85;;;22.80;99.90;;;;;;5076368;28;20621;-81
2022/05/06 14:41:34;;;;;;;15.30;12.15;;;22.70;99.90;;;;;;5076081;28;20219;-81
2022/05/06 14:43:59;;;;;;;13.82;12.52;;;22.40;99.90;;;;;;5076220;28;20191;-81
2022/05/06 14:46:25;;;;;;;16.13;13.98;;;21.90;99.90;;;;;;5076215;28;20664;-81
2022/05/06 14:48:51;;;;;;;18.40;14.00;;;21.50;99.90;;;;;;5076144;28;20167;-81
2022/05/06 14:51:16;;;;;;;16.05;14.45;;;21.20;99.90;;;;;;5076129;28;20195;-81
2022/05/06 14:53:42;;;;;;;18.20;14.43;;;20.90;99.90;;;;;;5076121;28;20172;-81
2022/05/06 14:56:08;;;;;;;15.32;13.82;;;20.80;99.90;;;;;;5076016;28;20191;-81
2022/05/06 14:58:33;;;;;;;16.13;14.55;;;20.70;99.90;;;;;;5076064;28;20696;-81
2022/05/06 15:01:00;;;;;;;16.15;13.85;;;20.30;99.90;;;;;;5075839;28;20231;-81
2022/05/06 15:03:27;;;;;;;15.98;13.38;;;20.30;99.90;;;;;;5075871;28;20171;-80
2022/05/06 15:05:53;;;;;;;20.02;14.13;;;20.50;99.90;;;;;;5075851;28;20254;-80
2022/05/06 15:08:19;;;;;;;17.70;13.68;;;20.80;99.90;;;;;;5075883;28;20206;-81
2022/05/06 15:10:46;;;;;;;14.45;12.95;;;21.10;99.90;;;;;;5074754;28;20244;-80
2022/05/06 15:13:12;;;;;;;18.33;12.60;;;21.20;99.90;;;;;;5075736;28;20203;-81
2022/05/06 15:15:39;;;;;;;16.52;14.23;;;21.40;99.90;;;;;;5075768;28;20204;-81
2022/05/06 15:20:49;;;;;;;14.48;12.98;;;21.60;99.90;;;;;;5075772;28;20234;-81
2022/05/06 15:23:17;;;;;;;14.93;13.43;;;21.60;99.90;;;;;;5075538;28;20629;-82
2022/05/06 15:25:42;;;;;;;14.02;12.70;;;21.50;99.90;;;;;;5075602;28;20171;-82
2022/05/06 15:28:08;;;;;;;15.73;13.95;;;21.50;99.90;;;;;;5075463;28;20207;-82
2022/05/06 15:30:33;;;;;;;16.92;13.55;;;21.50;99.90;;;;;;5075456;28;20213;-82
2022/05/06 15:32:59;;;;;;;17.42;14.27;;;21.40;99.90;;;;;;5075390;28;20172;-82
2022/05/06 15:35:25;;;;;;;16.20;13.75;;;21.00;99.90;;;;;;5075393;28;20220;-82
2022/05/06 15:37:51;;;;;;;16.52;14.20;;;20.60;99.90;;;;;;5075180;28;20259;-81
2022/05/06 15:40:16;;;;;;;19.17;13.75;;;20.20;99.90;;;;;;5074958;28;20311;-81
2022/05/06 15:42:42;;;;;;;15.57;13.15;;;20.00;99.90;;;;;;5075233;28;20227;-82
2022/05/06 15:45:08;;;;;;;14.60;13.10;;;19.80;99.90;;;;;;5074945;28;20606;-81
2022/05/06 15:47:33;;;;;;;18.00;14.00;;;19.80;99.90;;;;;;5075075;28;20625;-82
2022/05/06 15:49:59;;;;;;;16.35;13.77;;;19.70;99.90;;;;;;5075045;28;20247;-82
2022/05/06 15:52:25;;;;;;;16.10;14.40;;;19.70;99.90;;;;;;5075035;28;20633;-81
2022/05/06 15:54:50;;;;;;;23.40;14.13;;;19.60;99.90;;;;;;5073675;28;20172;-82
2022/05/06 15:57:16;;;;;;;17.70;14.75;;;19.60;99.90;;;;;;5073647;28;20167;-81
2022/05/06 15:59:41;;;;;;;18.13;14.18;;;19.40;99.90;;;;;;5074766;28;20632;-81
2022/05/06 16:02:07;;;;;;;16.50;14.75;;;19.30;99.90;;;;;;5074800;28;20180;-81
2022/05/06 16:04:32;;;;;;;16.23;14.35;;;19.40;99.90;;;;;;5074717;28;20621;-81
2022/05/06 16:06:58;;;;;;;23.33;14.77;;;19.30;99.90;;;;;;5074663;28;20168;-81
2022/05/06 16:09:25;;;;;;;16.38;14.55;;;19.30;99.90;;;;;;5073333;28;20167;-81
2022/05/06 16:11:51;;;;;;;19.17;14.95;;;19.30;99.90;;;;;;5074570;28;20244;-81
2022/05/06 16:15:16;;;;;;;21.80;14.75;;;19.40;99.90;;;;;;5074584;28;20194;-81
2022/05/06 16:17:03;;;;;;;18.90;15.23;;;19.20;99.90;;;;;;5074396;28;20178;-82
2022/05/06 16:19:28;;;;;;;16.58;14.80;;;19.20;99.90;;;;;;5074489;28;20213;-81
2022/05/06 16:21:55;;;;;;;17.00;14.18;;;19.10;99.90;;;;;;5074344;28;20211;-81
2022/05/06 16:24:21;;;;;;;16.58;14.93;;;19.20;99.90;;;;;;5074384;28;20171;-82
2022/05/06 16:26:46;;;;;;;19.17;16.10;;;19.20;99.90;;;;;;5073004;28;20168;-81
2022/05/06 16:29:12;;;;;;;19.92;15.73;;;19.10;99.90;;;;;;5074169;28;20167;-81
2022/05/06 16:31:37;;;;;;;19.38;15.30;;;19.10;99.90;;;;;;5074262;28;20168;-81
2022/05/06 16:39:31;;;;;;;22.83;17.23;;;19.10;99.90;;;;;;5074179;28;20221;-81
2022/05/06 16:41:57;;;;;;;19.02;15.18;;;19.10;99.90;;;;;;5074054;28;20199;-81
2022/05/06 16:44:25;;;;;;;22.17;15.32;;;19.10;99.90;;;;;;5073954;28;20207;-81
2022/05/06 16:46:50;;;;;;;19.15;15.18;;;19.10;99.90;;;;;;5073921;28;20521;-82
2022/05/06 16:49:16;;;;;;;17.23;14.90;;;19.10;99.90;;;;;;5073508;28;20172;-81
2022/05/06 16:51:42;;;;;;;17.23;15.35;;;19.20;99.90;;;;;;5073687;28;20202;-81
2022/05/06 16:54:07;;;;;;;20.33;14.80;;;19.20;99.90;;;;;;5073820;28;20250;-81
2022/05/06 16:56:33;;;;;;;19.08;14.57;;;19.10;99.90;;;;;;5073581;28;20171;-82
2022/05/06 16:58:59;;;;;;;18.73;15.18;;;19.10;99.90;;;;;;5073767;28;20621;-82
2022/05/06 17:01:24;;;;;;;16.05;14.02;;;19.20;99.90;;;;;;5073647;28;20195;-82
2022/05/06 17:03:50;;;;;;;20.65;14.65;;;19.40;99.90;;;;;;5073675;28;20164;-81
2022/05/06 17:06:15;;;;;;;21.92;16.52;;;19.70;99.90;;;;;;5073611;28;20164;-81
2022/05/06 17:08:41;;;;;;;19.55;15.40;;;20.10;99.90;;;;;;5073705;28;20174;-81
2022/05/06 17:11:13;;;;;;;21.95;14.95;;;20.40;99.90;;;;;;5073549;28;20176;-81
2022/05/06 17:13:39;;;;;;;18.30;15.40;;;20.50;99.90;;;;;;5073596;28;20258;-81
2022/05/06 17:16:07;;;;;;;25.17;16.63;;;20.70;99.90;;;;;;5073470;28;20598;-81
2022/05/06 17:18:37;;;;;;;18.75;13.02;;;20.80;99.90;;;;;;5073530;28;20192;-81
2022/05/06 17:21:07;;;;;;;16.42;12.60;;;21.00;99.90;;;;;;5073336;28;20194;-81
2022/05/06 17:23:34;;;;;;;17.25;13.95;;;21.20;99.90;;;;;;5073435;28;20174;-81
2022/05/06 17:26:01;;;;;;;19.60;14.07;;;21.40;99.90;;;;;;5073380;28;20629;-81
2022/05/06 17:28:27;;;;;;;16.48;13.48;;;21.50;99.90;;;;;;5072101;28;20521;-81
2022/05/06 17:30:53;;;;;;;18.55;14.10;;;21.50;99.90;;;;;;5073384;28;20229;-81
2022/05/06 17:33:19;;;;;;;18.77;14.10;;;21.50;99.90;;;;;;5073364;28;20184;-81
2022/05/06 17:35:44;;;;;;;14.40;12.90;;;21.50;99.90;;;;;;5073317;28;20237;-81
2022/05/06 17:38:10;;;;;;;19.27;14.40;;;21.30;99.90;;;;;;5073313;28;20171;-82
2022/05/06 17:40:36;;;;;;;15.13;12.75;;;21.20;99.90;;;;;;5072966;28;20307;-81
2022/05/06 17:43:02;;;;;;;15.65;12.70;;;20.80;99.90;;;;;;5071929;28;20176;-81
2022/05/06 17:45:28;;;;;;;15.05;13.43;;;20.80;99.90;;;;;;5071924;28;20164;-81
2022/05/06 17:47:58;;;;;;;14.57;13.05;;;20.80;99.90;;;;;;5073141;28;20172;-81
2022/05/06 17:50:25;;;;;;;14.90;13.40;;;20.90;99.90;;;;;;5073157;28;20201;-81
2022/05/06 17:52:51;;;;;;;17.02;13.77;;;20.90;99.90;;;;;;5073053;28;20508;-81
2022/05/06 17:55:18;;;;;;;14.63;13.10;;;20.80;99.90;;;;;;5073043;28;20171;-82
2022/05/06 17:57:44;;;;;;;13.35;11.95;;;20.60;99.90;;;;;;5072992;28;20167;-81
2022/05/06 18:02:54;;;;;;;18.27;12.48;;;20.50;99.90;;;;;;5075468;28;20171;-81
2022/05/06 18:05:20;;;;;;;17.67;12.45;;;20.50;99.90;;;;;;5076984;28;20168;-82
2022/05/06 18:07:46;;;;;;;18.73;12.02;;;20.40;99.90;;;;;;5076912;28;20653;-81
2022/05/06 18:10:11;;;;;;;16.73;13.05;;;20.40;99.90;;;;;;5076913;28;20198;-81
2022/05/06 18:12:37;;;;;;;13.68;11.70;;;20.30;99.90;;;;;;5076841;28;20539;-81
2022/05/06 18:15:02;;;;;;;15.02;11.73;;;20.20;99.90;;;;;;5076674;28;20203;-81
2022/05/06 18:17:28;;;;;;;15.85;12.55;;;20.00;99.90;;;;;;5076672;28;20183;-81
2022/05/06 18:19:55;;;;;;;15.25;11.90;;;19.80;99.90;;;;;;5076786;28;20179;-81
2022/05/06 18:22:21;;;;;;;19.25;12.75;;;19.70;99.90;;;;;;5076609;28;20523;-81
2022/05/06 18:24:46;;;;;;;15.60;12.90;;;19.50;99.90;;;;;;5076921;28;20160;-81
2022/05/06 18:27:12;;;;;;;18.23;13.07;;;19.20;99.90;;;;;;5076455;28;20168;-81
2022/05/06 18:29:39;;;;;;;18.63;12.45;;;18.90;99.90;;;;;;5075122;28;20172;-81
2022/05/06 18:34:49;;;;;;;15.18;11.73;;;18.60;99.90;;;;;;5076393;28;20185;-81
2022/05/06 18:37:15;;;;;;;15.10;12.07;;;18.40;99.90;;;;;;5076362;28;20171;-81
2022/05/06 18:39:41;;;;;;;18.50;11.95;;;18.30;99.90;;;;;;5076175;28;20168;-81
2022/05/06 18:42:08;;;;;;;17.30;11.80;;;18.20;99.90;;;;;;5076176;28;20237;-82
2022/05/06 18:44:33;;;;;;;16.58;12.23;;;18.00;99.90;;;;;;5076075;28;20184;-81
2022/05/06 18:46:59;;;;;;;18.25;12.90;;;17.80;99.90;;;;;;5076131;28;20172;-81
2022/05/06 18:49:24;;;;;;;15.25;12.50;;;17.60;99.90;;;;;;5076093;28;20164;-81
2022/05/06 18:51:53;;;;;;;13.30;11.18;;;17.50;99.90;;;;;;5076062;28;20212;-81
